createdAt,value
2022-11-28T00:01:20.855Z,5.47
2022-11-28T00:03:47.950Z,5.50
2022-11-28T00:06:15.165Z,5.23
2022-11-28T00:08:41.912Z,5.60
2022-11-28T00:11:11.306Z,5.67
2022-11-28T00:13:38.843Z,5.57
2022-11-28T00:16:08.261Z,5.63
2022-11-28T00:18:35.496Z,5.40
2022-11-28T00:21:06.150Z,5.50
2022-11-28T00:23:33.519Z,5.73
2022-11-28T00:26:08.991Z,5.37
2022-11-28T00:28:35.815Z,5.80
2022-11-28T00:31:02.430Z,5.50
2022-11-28T00:33:29.365Z,5.70
2022-11-28T00:36:05.043Z,5.67
2022-11-28T00:38:32.041Z,5.40
2022-11-28T00:41:03.485Z,5.67
2022-11-28T00:43:30.133Z,5.77
2022-11-28T00:45:57.145Z,4.90
2022-11-28T00:48:24.881Z,5.83
2022-11-28T00:50:52.247Z,6.23
2022-11-28T00:53:19.107Z,6.13
2022-11-28T00:55:45.787Z,5.90
2022-11-28T00:58:12.364Z,5.83
2022-11-28T01:00:39.524Z,5.70
2022-11-28T01:03:06.525Z,5.40
2022-11-28T01:05:33.309Z,5.60
2022-11-28T01:07:59.936Z,5.37
2022-11-28T01:10:27.264Z,5.27
2022-11-28T01:12:53.967Z,5.50
2022-11-28T01:15:20.790Z,5.70
2022-11-28T01:17:47.441Z,5.83
2022-11-28T01:20:14.575Z,5.77
2022-11-28T01:22:41.162Z,5.40
2022-11-28T01:25:07.972Z,6.20
2022-11-28T01:27:34.575Z,5.43
2022-11-28T01:30:01.156Z,5.70
2022-11-28T01:32:27.751Z,6.33
2022-11-28T01:34:54.375Z,5.70
2022-11-28T01:37:20.964Z,5.97
2022-11-28T01:39:47.605Z,6.30
2022-11-28T01:42:18.774Z,6.67
2022-11-28T01:44:48.174Z,6.83
2022-11-28T01:47:27.955Z,6.87
2022-11-28T01:49:55.723Z,7.03
2022-11-28T01:52:23.632Z,7.23
2022-11-28T01:54:55.178Z,7.00
2022-11-28T01:57:25.137Z,6.97
2022-11-28T01:59:59.462Z,7.83
2022-11-28T02:02:46.291Z,7.60
2022-11-28T02:05:13.516Z,7.47
2022-11-28T02:07:43.460Z,8.40
2022-11-28T02:10:15.045Z,8.40
2022-11-28T02:13:03.738Z,8.10
2022-11-28T02:15:33.818Z,8.13
2022-11-28T02:18:12.252Z,7.87
2022-11-28T02:20:57.364Z,7.90
2022-11-28T02:23:51.398Z,7.97
2022-11-28T02:26:36.854Z,7.73
2022-11-28T02:29:31.985Z,7.63
2022-11-28T02:32:25.206Z,8.00
2022-11-28T02:35:10.197Z,8.00
2022-11-28T02:38:02.542Z,8.43
2022-11-28T02:40:39.927Z,8.40
2022-11-28T02:43:28.240Z,8.03
2022-11-28T02:46:52.110Z,7.80
2022-11-28T02:49:26.838Z,7.60
2022-11-28T02:51:58.746Z,7.90
2022-11-28T02:54:27.339Z,7.13
2022-11-28T02:56:55.200Z,7.87
2022-11-28T02:59:49.647Z,7.20
2022-11-28T03:02:24.137Z,7.20
2022-11-28T03:05:18.108Z,7.07
2022-11-28T03:07:53.366Z,7.10
2022-11-28T03:10:33.844Z,6.67
2022-11-28T03:13:13.918Z,6.40
2022-11-28T03:16:09.077Z,6.87
2022-11-28T03:18:42.207Z,7.40
2022-11-28T03:21:23.502Z,6.90
2022-11-28T03:24:01.312Z,7.63
2022-11-28T03:26:41.646Z,6.67
2022-11-28T03:29:41.640Z,7.70
2022-11-28T03:32:11.988Z,7.73
2022-11-28T03:34:44.631Z,7.57
2022-11-28T03:37:16.859Z,8.37
2022-11-28T03:39:49.055Z,7.93
2022-11-28T03:42:40.099Z,7.53
2022-11-28T03:45:13.830Z,8.10
2022-11-28T03:47:52.290Z,7.90
2022-11-28T03:50:25.772Z,7.70
2022-11-28T03:53:03.412Z,7.57
2022-11-28T03:55:43.648Z,7.40
2022-11-28T03:58:23.152Z,7.00
2022-11-28T04:01:02.342Z,7.07
2022-11-28T04:03:40.930Z,7.50
2022-11-28T04:06:24.456Z,6.97
2022-11-28T04:09:49.517Z,6.70
2022-11-28T04:12:21.274Z,6.63
2022-11-28T04:14:55.739Z,6.23
2022-11-28T04:17:42.542Z,6.43
2022-11-28T04:20:21.139Z,6.50
2022-11-28T04:22:54.186Z,6.53
2022-11-28T04:25:23.184Z,6.27
2022-11-28T04:28:07.097Z,6.27
2022-11-28T04:30:34.748Z,5.90
2022-11-28T04:33:07.077Z,5.57
2022-11-28T04:35:38.220Z,5.27
2022-11-28T04:38:07.458Z,5.10
2022-11-28T04:40:57.685Z,5.00
2022-11-28T04:43:29.958Z,5.47
2022-11-28T04:46:02.478Z,5.73
2022-11-28T04:48:34.131Z,5.40
2022-11-28T04:51:25.799Z,5.33
2022-11-28T04:54:15.899Z,4.40
2022-11-28T04:56:48.476Z,5.47
2022-11-28T04:59:15.820Z,5.23
2022-11-28T05:01:46.224Z,4.97
2022-11-28T05:04:14.685Z,5.27
2022-11-28T05:06:41.283Z,5.00
2022-11-28T05:09:10.078Z,6.00
2022-11-28T05:11:36.701Z,5.57
2022-11-28T05:14:03.370Z,5.47
2022-11-28T05:16:30.093Z,5.57
2022-11-28T05:18:56.777Z,5.40
2022-11-28T05:21:23.467Z,5.10
2022-11-28T05:23:50.092Z,5.07
2022-11-28T05:26:20.277Z,6.00
2022-11-28T05:28:50.068Z,5.27
2022-11-28T05:31:18.908Z,5.43
2022-11-28T05:33:45.997Z,5.40
2022-11-28T05:36:13.880Z,5.80
2022-11-28T05:38:41.461Z,5.77
2022-11-28T05:41:09.189Z,6.27
2022-11-28T05:43:35.865Z,6.47
2022-11-28T05:46:06.542Z,6.40
2022-11-28T05:48:33.225Z,5.93
2022-11-28T05:51:00.638Z,5.90
2022-11-28T05:53:27.277Z,5.90
2022-11-28T05:55:53.869Z,5.80
2022-11-28T05:58:20.477Z,5.67
2022-11-28T06:00:47.121Z,5.77
2022-11-28T06:03:13.739Z,5.90
2022-11-28T06:05:43.679Z,5.67
2022-11-28T06:08:12.075Z,5.73
2022-11-28T06:10:39.023Z,5.80
2022-11-28T06:13:05.767Z,5.50
2022-11-28T06:15:37.533Z,6.03
2022-11-28T06:18:05.283Z,5.40
2022-11-28T06:20:31.902Z,5.97
2022-11-28T06:22:58.600Z,5.83
2022-11-28T06:25:25.171Z,5.73
2022-11-28T06:27:51.811Z,5.90
2022-11-28T06:30:18.419Z,6.57
2022-11-28T06:32:45.057Z,5.73
2022-11-28T06:35:11.702Z,5.30
2022-11-28T06:37:38.338Z,5.70
2022-11-28T06:40:05.807Z,5.57
2022-11-28T06:42:32.457Z,5.20
2022-11-28T06:44:59.026Z,5.20
2022-11-28T06:47:25.681Z,5.60
2022-11-28T06:49:52.761Z,5.37
2022-11-28T06:52:19.345Z,5.43
2022-11-28T06:54:45.935Z,5.97
2022-11-28T06:57:12.684Z,5.60
2022-11-28T06:59:39.360Z,5.50
2022-11-28T07:02:07.925Z,5.27
2022-11-28T07:04:34.805Z,6.10
2022-11-28T07:07:01.637Z,5.33
2022-11-28T07:09:28.396Z,5.67
2022-11-28T07:11:55.179Z,5.23
2022-11-28T07:14:21.797Z,5.27
2022-11-28T07:16:49.256Z,5.37
2022-11-28T07:19:16.183Z,5.90
2022-11-28T07:21:42.847Z,5.60
2022-11-28T07:24:09.444Z,5.60
2022-11-28T07:26:38.073Z,5.40
2022-11-28T07:29:07.000Z,8.40
2022-11-28T07:31:33.849Z,5.53
2022-11-28T07:34:03.530Z,6.20
2022-11-28T07:36:30.832Z,7.80
2022-11-28T07:38:59.831Z,9.57
2022-11-28T07:41:27.401Z,15.70
2022-11-28T07:43:57.147Z,12.50
2022-11-28T07:46:24.917Z,16.13
2022-11-28T07:48:52.293Z,14.43
2022-11-28T07:51:21.703Z,6.90
2022-11-28T07:53:48.490Z,6.83
2022-11-28T07:56:18.691Z,7.53
2022-11-28T07:58:47.236Z,6.67
2022-11-28T08:01:19.124Z,6.47
2022-11-28T08:03:46.866Z,6.23
2022-11-28T08:06:16.631Z,6.73
2022-11-28T08:08:43.929Z,6.70
2022-11-28T08:11:10.885Z,6.50
2022-11-28T08:13:38.764Z,6.70
2022-11-28T08:16:08.157Z,6.80
2022-11-28T08:18:36.069Z,6.30
2022-11-28T08:21:05.050Z,7.00
2022-11-28T08:23:33.738Z,7.40
2022-11-28T08:26:03.808Z,6.57
2022-11-28T08:28:31.504Z,6.43
2022-11-28T08:31:01.382Z,6.40
2022-11-28T08:33:28.067Z,6.40
2022-11-28T08:35:54.670Z,6.70
2022-11-28T08:38:21.308Z,9.60
2022-11-28T08:40:47.890Z,6.60
2022-11-28T08:43:14.644Z,8.33
2022-11-28T08:45:41.474Z,5.53
2022-11-28T08:48:08.105Z,5.87
2022-11-28T08:50:34.686Z,6.37
2022-11-28T08:53:07.830Z,6.23
2022-11-28T08:55:39.162Z,6.33
2022-11-28T08:58:08.506Z,5.87
2022-11-28T09:00:35.411Z,6.70
2022-11-28T09:03:02.304Z,5.80
2022-11-28T09:05:29.895Z,6.67
2022-11-28T09:07:56.859Z,5.83
2022-11-28T09:10:25.052Z,6.80
2022-11-28T09:12:52.511Z,6.17
2022-11-28T09:15:19.205Z,6.23
2022-11-28T09:17:46.576Z,8.77
2022-11-28T09:20:13.651Z,6.17
2022-11-28T09:22:42.540Z,7.83
2022-11-28T09:25:09.337Z,6.20
2022-11-28T09:27:35.906Z,6.50
2022-11-28T09:30:02.589Z,6.43
2022-11-28T09:32:29.173Z,6.57
2022-11-28T09:34:55.777Z,6.60
2022-11-28T09:37:22.374Z,7.20
2022-11-28T09:40:11.668Z,6.87
2022-11-28T09:42:39.393Z,6.73
2022-11-28T09:45:11.960Z,6.93
2022-11-28T09:47:42.884Z,6.67
2022-11-28T09:50:16.786Z,6.03
2022-11-28T09:52:49.705Z,6.73
2022-11-28T09:55:28.225Z,6.77
2022-11-28T09:57:55.392Z,6.53
2022-11-28T10:00:55.361Z,6.90
2022-11-28T10:03:43.771Z,7.13
2022-11-28T10:06:19.196Z,6.07
2022-11-28T10:09:16.648Z,6.40
2022-11-28T10:12:04.850Z,6.37
2022-11-28T10:14:51.376Z,6.23
2022-11-28T10:17:50.462Z,6.03
2022-11-28T10:20:28.352Z,6.73
2022-11-28T10:23:18.062Z,6.70
2022-11-28T10:25:53.820Z,6.97
2022-11-28T10:28:26.557Z,7.63
2022-11-28T10:31:01.652Z,7.13
2022-11-28T10:33:52.064Z,7.90
2022-11-28T10:36:26.522Z,7.83
2022-11-28T10:38:53.478Z,7.53
2022-11-28T10:41:28.831Z,8.10
2022-11-28T10:44:00.738Z,7.77
2022-11-28T10:46:49.414Z,7.90
2022-11-28T10:49:37.154Z,8.17
2022-11-28T10:52:04.097Z,8.37
2022-11-28T10:54:49.649Z,7.53
2022-11-28T10:57:31.481Z,8.40
2022-11-28T11:00:14.525Z,7.97
2022-11-28T11:03:00.411Z,7.90
2022-11-28T11:05:32.960Z,8.00
2022-11-28T11:08:10.089Z,8.53
2022-11-28T11:10:41.359Z,8.23
2022-11-28T11:13:19.206Z,8.40
2022-11-28T11:15:49.195Z,8.30
2022-11-28T11:18:42.158Z,8.73
2022-11-28T11:21:15.358Z,8.30
2022-11-28T11:23:43.095Z,7.97
2022-11-28T11:26:25.011Z,8.57
2022-11-28T11:28:52.506Z,8.63
2022-11-28T11:31:24.128Z,8.83
2022-11-28T11:33:53.873Z,8.57
2022-11-28T11:36:25.487Z,8.23
2022-11-28T11:38:52.685Z,7.87
2022-11-28T11:41:28.016Z,9.63
2022-11-28T11:43:54.827Z,7.87
2022-11-28T11:46:21.538Z,8.63
2022-11-28T11:48:51.223Z,7.80
2022-11-28T11:51:35.230Z,9.03
2022-11-28T11:54:19.239Z,8.03
2022-11-28T11:56:53.557Z,7.90
2022-11-28T11:59:26.326Z,8.83
2022-11-28T12:01:57.615Z,7.73
2022-11-28T12:04:45.648Z,8.20
2022-11-28T12:07:28.124Z,9.60
2022-11-28T12:09:59.502Z,8.90
2022-11-28T12:12:33.710Z,7.83
2022-11-28T12:15:00.299Z,8.63
2022-11-28T12:17:50.706Z,7.90
2022-11-28T12:20:43.165Z,8.07
2022-11-28T12:23:40.667Z,8.77
2022-11-28T12:26:28.826Z,9.07
2022-11-28T12:29:53.436Z,7.67
2022-11-28T12:32:32.065Z,8.10
2022-11-28T12:35:15.969Z,8.37
2022-11-28T12:38:10.168Z,9.50
2022-11-28T12:41:14.537Z,7.67
2022-11-28T12:43:42.717Z,7.13
2022-11-28T12:46:38.029Z,6.63
2022-11-28T12:49:10.807Z,7.20
2022-11-28T12:51:55.358Z,7.53
2022-11-28T12:54:24.612Z,9.07
2022-11-28T12:57:07.653Z,10.27
2022-11-28T13:00:08.625Z,8.90
2022-11-28T13:02:42.689Z,9.43
2022-11-28T13:05:50.623Z,7.20
2022-11-28T13:08:47.887Z,9.93
2022-11-28T13:11:40.169Z,8.73
2022-11-28T13:14:15.613Z,10.27
2022-11-28T13:16:51.484Z,15.20
2022-11-28T13:19:38.091Z,8.73
2022-11-28T13:22:34.078Z,6.87
2022-11-28T13:25:29.468Z,7.03
2022-11-28T13:28:10.670Z,7.63
2022-11-28T13:30:47.984Z,7.10
2022-11-28T13:33:14.615Z,10.23
2022-11-28T13:35:44.016Z,8.53
2022-11-28T13:38:36.729Z,9.87
2022-11-28T13:41:35.820Z,12.37
2022-11-28T13:44:22.020Z,9.93
2022-11-28T13:46:48.768Z,11.60
2022-11-28T13:49:24.387Z,11.03
2022-11-28T13:52:18.708Z,6.50
2022-11-28T13:54:52.952Z,8.30
2022-11-28T13:57:26.937Z,8.77
2022-11-28T14:00:02.295Z,9.00
2022-11-28T14:02:51.222Z,20.17
2022-11-28T14:05:28.847Z,17.97
2022-11-28T14:07:56.899Z,10.00
2022-11-28T14:10:40.602Z,16.30
2022-11-28T14:13:24.088Z,10.13
2022-11-28T14:16:13.679Z,6.93
2022-11-28T14:18:57.260Z,6.13
2022-11-28T14:21:39.575Z,9.20
2022-11-28T14:24:27.291Z,7.53
2022-11-28T14:27:00.350Z,8.57
2022-11-28T14:29:49.824Z,10.30
2022-11-28T14:32:40.528Z,10.10
2022-11-28T14:35:17.658Z,7.70
2022-11-28T14:37:53.660Z,7.67
2022-11-28T14:40:51.278Z,9.70
2022-11-28T14:43:23.835Z,9.63
2022-11-28T14:45:52.164Z,9.30
2022-11-28T14:48:31.190Z,9.40
2022-11-28T14:51:01.932Z,12.13
2022-11-28T14:53:42.389Z,10.63
2022-11-28T14:56:15.786Z,11.10
2022-11-28T14:59:03.468Z,10.73
2022-11-28T15:01:41.040Z,13.07
2022-11-28T15:04:26.816Z,11.93
2022-11-28T15:06:54.977Z,9.83
2022-11-28T15:10:07.946Z,9.10
2022-11-28T15:12:54.838Z,9.60
2022-11-28T15:15:22.729Z,10.97
2022-11-28T15:17:53.136Z,9.53
2022-11-28T15:20:35.478Z,9.70
2022-11-28T15:23:02.304Z,10.17
2022-11-28T15:25:35.655Z,10.90
2022-11-28T15:28:16.699Z,11.07
2022-11-28T15:30:51.502Z,11.90
2022-11-28T15:33:19.721Z,11.27
2022-11-28T15:36:10.883Z,12.50
2022-11-28T15:38:41.347Z,13.10
2022-11-28T15:41:08.163Z,11.50
2022-11-28T15:43:37.593Z,10.30
2022-11-28T15:46:05.949Z,9.37
2022-11-28T15:48:39.423Z,9.67
2022-11-28T15:51:08.095Z,9.57
2022-11-28T15:53:40.492Z,9.90
2022-11-28T15:56:12.686Z,10.70
2022-11-28T15:58:39.705Z,10.33
2022-11-28T16:01:40.607Z,10.23
2022-11-28T16:04:13.441Z,10.53
2022-11-28T16:06:44.474Z,10.73
2022-11-28T16:09:19.979Z,10.40
2022-11-28T16:11:49.705Z,10.30
2022-11-28T16:14:25.556Z,10.90
2022-11-28T16:16:52.182Z,11.30
2022-11-28T16:19:26.621Z,11.33
2022-11-28T16:21:57.777Z,11.50
2022-11-28T16:24:31.138Z,11.07
2022-11-28T16:27:03.478Z,11.20
2022-11-28T16:29:35.988Z,11.43
2022-11-28T16:32:19.602Z,12.27
2022-11-28T16:34:49.484Z,12.37
2022-11-28T16:37:27.619Z,12.20
2022-11-28T16:40:13.282Z,12.27
2022-11-28T16:42:40.414Z,14.47
2022-11-28T16:45:10.299Z,14.17
2022-11-28T16:47:37.233Z,13.73
2022-11-28T16:50:15.360Z,13.60
2022-11-28T16:52:46.467Z,14.03
2022-11-28T16:55:39.574Z,14.97
2022-11-28T16:58:18.790Z,17.20
2022-11-28T17:00:51.753Z,15.53
2022-11-28T17:03:41.495Z,15.90
2022-11-28T17:06:21.107Z,15.87
2022-11-28T17:08:48.454Z,14.07
2022-11-28T17:11:18.141Z,15.67
2022-11-28T17:13:44.760Z,18.40
2022-11-28T17:16:17.188Z,18.40
2022-11-28T17:18:45.154Z,17.70
2022-11-28T17:21:12.857Z,19.23
2022-11-28T17:23:41.095Z,16.17
2022-11-28T17:26:08.671Z,15.70
2022-11-28T17:28:35.719Z,15.70
2022-11-28T17:31:02.518Z,16.97
2022-11-28T17:33:29.192Z,15.63
2022-11-28T17:35:57.861Z,16.83
2022-11-28T17:38:24.798Z,16.97
2022-11-28T17:40:51.376Z,17.27
2022-11-28T17:43:20.471Z,17.77
2022-11-28T17:45:50.623Z,17.17
2022-11-28T17:48:18.041Z,17.07
2022-11-28T17:50:48.185Z,16.23
2022-11-28T17:53:18.245Z,16.50
2022-11-28T17:55:46.999Z,17.20
2022-11-28T17:58:23.601Z,17.13
2022-11-28T18:00:51.766Z,16.80
2022-11-28T18:03:20.848Z,16.53
2022-11-28T18:05:49.497Z,18.57
2022-11-28T18:08:21.850Z,18.63
2022-11-28T18:10:49.192Z,18.40
2022-11-28T18:13:17.599Z,19.17
2022-11-28T18:15:47.128Z,19.23
2022-11-28T18:18:14.181Z,21.30
2022-11-28T18:20:41.251Z,22.57
2022-11-28T18:23:11.020Z,21.57
2022-11-28T18:25:42.732Z,20.13
2022-11-28T18:28:18.618Z,17.70
2022-11-28T18:30:47.471Z,18.73
2022-11-28T18:33:15.393Z,19.33
2022-11-28T18:35:42.686Z,16.97
2022-11-28T18:38:11.787Z,17.43
2022-11-28T18:40:39.095Z,17.40
2022-11-28T18:43:05.940Z,18.57
2022-11-28T18:45:33.279Z,18.67
2022-11-28T18:48:00.637Z,19.57
2022-11-28T18:50:28.217Z,19.37
2022-11-28T18:52:54.838Z,20.30
2022-11-28T18:55:21.521Z,20.33
2022-11-28T18:57:48.795Z,22.57
2022-11-28T19:00:16.108Z,21.70
2022-11-28T19:02:42.958Z,24.80
2022-11-28T19:05:10.210Z,24.43
2022-11-28T19:07:37.319Z,22.00
2022-11-28T19:10:04.308Z,19.77
2022-11-28T19:12:30.897Z,19.47
2022-11-28T19:15:02.039Z,19.70
2022-11-28T19:17:29.418Z,18.83
2022-11-28T19:19:56.215Z,18.27
2022-11-28T19:22:22.902Z,20.57
2022-11-28T19:24:49.539Z,20.50
2022-11-28T19:27:16.379Z,18.47
2022-11-28T19:29:43.285Z,18.80
2022-11-28T19:32:10.301Z,17.87
2022-11-28T19:34:37.008Z,18.13
2022-11-28T19:37:03.626Z,18.93
2022-11-28T19:39:30.414Z,19.10
2022-11-28T19:41:57.335Z,18.87
2022-11-28T19:44:24.749Z,18.70
2022-11-28T19:46:53.433Z,19.27
2022-11-28T19:49:23.070Z,16.63
2022-11-28T19:51:51.075Z,18.27
2022-11-28T19:54:21.989Z,18.17
2022-11-28T19:56:49.549Z,17.47
2022-11-28T19:59:16.837Z,17.67
2022-11-28T20:01:43.806Z,17.03
2022-11-28T20:04:10.974Z,18.60
2022-11-28T20:06:38.140Z,19.60
2022-11-28T20:09:08.858Z,18.97
2022-11-28T20:11:40.070Z,19.80
2022-11-28T20:14:12.348Z,17.07
2022-11-28T20:16:40.535Z,14.70
2022-11-28T20:19:10.235Z,15.20
2022-11-28T20:21:37.151Z,14.87
2022-11-28T20:24:07.404Z,16.37
2022-11-28T20:26:40.884Z,16.23
2022-11-28T20:29:11.837Z,15.87
2022-11-28T20:31:46.171Z,15.37
2022-11-28T20:34:17.084Z,14.67
2022-11-28T20:36:44.201Z,14.83
2022-11-28T20:39:12.064Z,14.93
2022-11-28T20:41:38.663Z,15.17
2022-11-28T20:44:05.497Z,14.43
2022-11-28T20:46:34.087Z,15.47
2022-11-28T20:49:04.215Z,14.43
2022-11-28T20:51:34.164Z,14.27
2022-11-28T20:54:02.633Z,11.13
2022-11-28T20:56:31.885Z,13.27
2022-11-28T20:59:00.702Z,14.97
2022-11-28T21:01:30.754Z,14.80
2022-11-28T21:03:57.449Z,15.07
2022-11-28T21:06:24.303Z,12.87
2022-11-28T21:08:51.255Z,13.27
2022-11-28T21:11:43.373Z,13.30
2022-11-28T21:14:07.557Z,11.77
2022-11-28T21:16:34.747Z,12.90
2022-11-28T21:19:05.028Z,13.03
2022-11-28T21:21:34.045Z,12.63
2022-11-28T21:24:03.329Z,12.53
2022-11-28T21:26:39.203Z,11.50
2022-11-28T21:29:09.214Z,11.53
2022-11-28T21:31:40.070Z,12.53
2022-11-28T21:34:06.739Z,13.30
2022-11-28T21:36:33.655Z,12.07
2022-11-28T21:39:01.271Z,11.33
2022-11-28T21:41:31.165Z,11.07
2022-11-28T21:43:58.641Z,11.30
2022-11-28T21:46:26.240Z,11.53
2022-11-28T21:48:53.646Z,11.20
2022-11-28T21:51:22.883Z,11.40
2022-11-28T21:53:49.831Z,10.53
2022-11-28T21:56:17.302Z,10.07
2022-11-28T21:58:44.277Z,10.53
2022-11-28T22:01:13.501Z,9.67
2022-11-28T22:03:41.730Z,9.93
2022-11-28T22:06:12.263Z,10.23
2022-11-28T22:08:38.835Z,9.90
2022-11-28T22:11:08.571Z,10.87
2022-11-28T22:13:35.845Z,11.03
2022-11-28T22:16:10.611Z,13.30
2022-11-28T22:18:37.567Z,12.10
2022-11-28T22:21:28.678Z,12.50
2022-11-28T22:23:53.480Z,14.73
2022-11-28T22:26:20.147Z,15.90
2022-11-28T22:28:53.161Z,16.47
2022-11-28T22:31:20.561Z,13.30
2022-11-28T22:33:49.125Z,13.50
2022-11-28T22:36:18.133Z,15.13
2022-11-28T22:38:46.079Z,15.87
2022-11-28T22:41:28.405Z,16.87
2022-11-28T22:43:59.590Z,16.37
2022-11-28T22:46:27.852Z,15.70
2022-11-28T22:48:54.721Z,15.20
2022-11-28T22:51:23.988Z,15.93
2022-11-28T22:53:55.647Z,17.30
2022-11-28T22:56:24.825Z,15.53
2022-11-28T22:58:51.830Z,15.23
2022-11-28T23:01:22.349Z,13.77
2022-11-28T23:03:49.004Z,16.93
2022-11-28T23:06:24.929Z,18.70
2022-11-28T23:08:55.752Z,17.60
2022-11-28T23:11:26.610Z,15.33
2022-11-28T23:13:53.619Z,15.90
2022-11-28T23:16:26.200Z,13.73
2022-11-28T23:18:56.862Z,11.87
2022-11-28T23:21:25.851Z,11.23
2022-11-28T23:23:53.585Z,11.80
2022-11-28T23:26:28.533Z,13.63
2022-11-28T23:28:55.666Z,12.97
2022-11-28T23:31:25.947Z,15.47
2022-11-28T23:33:54.126Z,15.60
2022-11-28T23:36:26.277Z,14.07
2022-11-28T23:38:56.174Z,18.33
2022-11-28T23:41:23.657Z,14.30
2022-11-28T23:43:50.738Z,14.67
2022-11-28T23:46:18.904Z,15.83
2022-11-28T23:48:46.714Z,15.63
2022-11-28T23:51:14.904Z,14.47
2022-11-28T23:53:42.737Z,14.63
2022-11-28T23:56:14.917Z,18.23
2022-11-28T23:58:42.276Z,19.53
